Time;durP1;ratioP1;P1;durP2;ratioP2;P2;SDS_P1;SDS_P2;PMS_P1;PMS_P2;Temp;Humidity;BMP_temperature;BMP_pressure;BME280_temperature;BME280_humidity;BME280_pressure;Samples;Min_cycle;Max_cycle;Signal;HPM_P1;HPM_P2
2022/11/17 00:00:19;;;;;;;23.75;14.20;;;8.10;99.90;;;;;;4912287;29;20047;-58
2022/11/17 00:02:46;;;;;;;20.70;14.18;;;8.10;99.90;;;;;;4914634;29;20399;-59
2022/11/17 00:05:12;;;;;;;26.02;14.00;;;8.10;99.90;;;;;;4914268;29;20040;-59
2022/11/17 00:07:38;;;;;;;19.42;14.25;;;8.10;99.90;;;;;;4912869;29;20435;-59
2022/11/17 00:10:04;;;;;;;21.10;13.75;;;8.10;99.90;;;;;;4910831;29;20058;-58
2022/11/17 00:15:14;;;;;;;21.27;13.82;;;8.10;99.90;;;;;;4914632;29;20131;-59
2022/11/17 00:17:40;;;;;;;18.88;13.60;;;8.10;99.90;;;;;;4915546;29;20595;-60
2022/11/17 00:22:53;;;;;;;20.90;13.73;;;8.10;99.90;;;;;;4914447;29;20067;-60
2022/11/17 00:25:19;;;;;;;20.48;13.80;;;8.10;99.90;;;;;;4915163;29;20047;-58
2022/11/17 00:27:45;;;;;;;19.50;13.45;;;8.10;99.90;;;;;;4913624;29;20191;-59
2022/11/17 00:34:03;;;;;;;18.35;13.45;;;8.10;99.90;;;;;;4914831;29;20059;-59
2022/11/17 00:35:50;;;;;;;19.08;13.82;;;8.10;99.90;;;;;;4936026;29;20497;-58
2022/11/17 00:38:16;;;;;;;18.75;13.50;;;8.10;99.90;;;;;;4934320;28;20082;-60
2022/11/17 00:40:42;;;;;;;18.48;12.60;;;8.00;99.90;;;;;;4937228;28;20505;-60
2022/11/17 00:43:08;;;;;;;17.98;12.55;;;8.10;99.90;;;;;;4934233;28;20107;-59
2022/11/17 00:45:33;;;;;;;18.83;12.90;;;8.10;99.90;;;;;;4933101;29;20058;-58
2022/11/17 00:47:59;;;;;;;19.05;12.70;;;8.10;99.90;;;;;;4928975;29;20061;-59
2022/11/17 00:50:25;;;;;;;17.20;12.70;;;8.10;99.90;;;;;;4939191;29;20048;-59
2022/11/17 00:52:51;;;;;;;15.82;11.90;;;8.10;99.90;;;;;;4940924;29;20044;-58
2022/11/17 00:55:17;;;;;;;16.63;11.80;;;8.10;99.90;;;;;;4935370;29;20561;-59
2022/11/17 00:57:43;;;;;;;18.67;12.20;;;8.10;99.90;;;;;;4939190;28;20122;-59
2022/11/17 01:00:09;;;;;;;17.27;12.43;;;8.10;99.90;;;;;;4936931;29;20047;-59
2022/11/17 01:02:35;;;;;;;17.25;11.63;;;8.10;99.90;;;;;;4933385;28;20056;-58
2022/11/17 01:05:01;;;;;;;19.25;12.40;;;8.10;99.90;;;;;;4934556;29;20047;-59
2022/11/17 01:07:26;;;;;;;13.85;11.40;;;8.10;99.90;;;;;;4935155;29;20051;-59
2022/11/17 01:09:52;;;;;;;18.25;11.57;;;8.00;99.90;;;;;;4934105;29;20060;-59
2022/11/17 01:12:18;;;;;;;17.13;11.75;;;8.10;99.90;;;;;;4936864;29;20047;-58
2022/11/17 01:14:44;;;;;;;17.40;11.80;;;8.10;99.90;;;;;;4932486;28;20055;-60
2022/11/17 01:17:09;;;;;;;15.65;11.93;;;8.00;99.90;;;;;;4931853;28;20130;-59
2022/11/17 01:19:35;;;;;;;16.85;11.93;;;8.10;99.90;;;;;;4938540;29;20520;-60
2022/11/17 01:22:01;;;;;;;15.20;11.45;;;8.10;99.90;;;;;;4934034;29;20190;-59
2022/11/17 01:24:27;;;;;;;15.02;11.25;;;8.00;99.90;;;;;;4937005;29;20052;-57
2022/11/17 01:26:53;;;;;;;15.27;11.20;;;8.00;99.90;;;;;;4935875;29;20047;-58
2022/11/17 01:29:19;;;;;;;15.18;12.10;;;8.00;99.90;;;;;;4931593;29;21173;-59
2022/11/17 01:31:49;;;;;;;18.33;11.50;;;8.00;99.90;;;;;;4914254;29;20044;-58
2022/11/17 01:34:15;;;;;;;15.13;11.48;;;8.00;99.90;;;;;;4915718;29;20956;-59
2022/11/17 01:39:28;;;;;;;14.95;11.25;;;7.90;99.90;;;;;;4916569;29;20055;-58
2022/11/17 01:41:54;;;;;;;13.85;11.40;;;7.90;99.90;;;;;;4915560;29;20163;-59
2022/11/17 01:44:39;;;;;;;16.65;11.40;;;7.90;99.90;;;;;;4897217;29;20044;-57
2022/11/17 01:47:16;;;;;;;15.63;11.13;;;7.90;99.90;;;;;;4915277;29;20483;-60
2022/11/17 01:49:43;;;;;;;16.00;10.95;;;7.90;99.90;;;;;;4917358;29;20047;-58
2022/11/17 01:52:10;;;;;;;15.02;11.52;;;7.90;99.90;;;;;;4915428;29;20047;-59
2022/11/17 01:54:39;;;;;;;14.38;11.57;;;7.90;99.90;;;;;;4905522;29;20538;-59
2022/11/17 01:57:09;;;;;;;15.63;11.55;;;7.80;99.90;;;;;;4917862;29;20056;-59
2022/11/17 01:59:40;;;;;;;15.45;11.20;;;7.80;99.90;;;;;;4913937;29;20656;-59
2022/11/17 02:02:06;;;;;;;16.90;11.88;;;7.80;99.90;;;;;;4916492;29;20388;-59
2022/11/17 02:04:35;;;;;;;16.98;11.45;;;7.80;99.90;;;;;;4913151;29;20055;-59
2022/11/17 02:07:40;;;;;;;17.08;11.93;;;7.80;99.90;;;;;;4915963;29;20044;-59
2022/11/17 02:10:06;;;;;;;16.30;11.57;;;7.80;99.90;;;;;;4846127;29;20041;-59
2022/11/17 02:12:35;;;;;;;15.02;11.50;;;7.80;99.90;;;;;;4900170;29;20059;-59
2022/11/17 02:15:02;;;;;;;17.55;12.15;;;7.70;99.90;;;;;;4915644;29;20141;-59
2022/11/17 02:17:41;;;;;;;16.58;11.88;;;7.70;99.90;;;;;;4915899;29;20055;-59
2022/11/17 02:20:12;;;;;;;15.35;11.10;;;7.70;99.90;;;;;;4914835;29;20052;-58
2022/11/17 02:22:45;;;;;;;18.67;12.07;;;7.70;99.90;;;;;;4913714;29;20056;-58
2022/11/17 02:26:05;;;;;;;17.48;11.48;;;7.70;99.90;;;;;;4916598;29;20047;-59
2022/11/17 02:28:42;;;;;;;15.18;11.43;;;7.70;99.90;;;;;;4878153;29;20048;-59
2022/11/17 02:31:42;;;;;;;18.10;11.30;;;7.70;99.90;;;;;;4915627;29;20056;-59
2022/11/17 02:34:22;;;;;;;16.38;10.85;;;7.70;99.90;;;;;;4913327;29;21238;-58
2022/11/17 02:36:54;;;;;;;13.85;10.98;;;7.70;99.90;;;;;;4914712;29;20514;-59
2022/11/17 02:39:26;;;;;;;14.20;11.00;;;7.70;99.90;;;;;;4916928;29;20486;-58
2022/11/17 02:42:17;;;;;;;14.27;10.93;;;7.70;99.90;;;;;;4902821;29;20058;-58
2022/11/17 02:44:56;;;;;;;16.48;11.10;;;7.80;99.90;;;;;;4912630;29;20052;-59
2022/11/17 02:47:34;;;;;;;18.75;12.10;;;7.70;99.90;;;;;;4914208;29;20040;-58
2022/11/17 02:50:05;;;;;;;14.98;10.85;;;7.70;99.90;;;;;;4913707;29;20055;-59
2022/11/17 02:52:31;;;;;;;14.27;11.45;;;7.70;99.90;;;;;;4911501;29;20071;-59
2022/11/17 02:55:02;;;;;;;17.10;12.43;;;7.70;99.90;;;;;;4917065;29;20309;-58
2022/11/17 02:57:28;;;;;;;16.58;12.43;;;7.70;99.90;;;;;;4912627;29;20054;-59
2022/11/17 02:59:54;;;;;;;15.23;11.60;;;7.70;99.90;;;;;;4915381;29;20063;-59
2022/11/17 03:02:46;;;;;;;21.17;11.43;;;7.70;99.90;;;;;;4912804;29;20052;-58
2022/11/17 03:05:26;;;;;;;19.05;11.40;;;7.70;99.90;;;;;;4911883;29;20051;-59
2022/11/17 03:07:55;;;;;;;18.13;12.57;;;7.70;99.90;;;;;;4913291;29;20549;-57
2022/11/17 03:10:50;;;;;;;18.15;12.05;;;7.70;99.90;;;;;;4913377;29;20051;-58
2022/11/17 03:13:39;;;;;;;14.45;11.55;;;7.70;99.90;;;;;;4916131;29;20518;-59
2022/11/17 03:16:24;;;;;;;15.85;11.98;;;7.60;99.90;;;;;;4914051;29;20388;-58
2022/11/17 03:19:17;;;;;;;19.92;12.85;;;7.70;99.90;;;;;;4911861;29;20047;-58
2022/11/17 03:21:45;;;;;;;;;;;7.60;99.90;;;;;;4912875;29;20104;-58
2022/11/17 03:24:27;;;;;;;17.85;12.20;;;7.60;99.90;;;;;;4913744;29;19927;-58
2022/11/17 03:27:00;;;;;;;16.52;12.45;;;7.60;99.90;;;;;;4913462;29;20047;-57
2022/11/17 03:29:29;;;;;;;16.23;12.32;;;7.60;99.90;;;;;;4914031;29;20127;-58
2022/11/17 03:31:59;;;;;;;16.38;12.82;;;7.60;99.90;;;;;;4914032;29;20081;-59
2022/11/17 03:34:28;;;;;;;20.83;11.75;;;7.60;99.90;;;;;;4913653;29;20462;-58
2022/11/17 03:36:59;;;;;;;20.73;12.48;;;7.60;99.90;;;;;;4912233;29;20044;-57
2022/11/17 03:39:42;;;;;;;17.02;12.30;;;7.60;99.90;;;;;;4914428;29;20044;-58
2022/11/17 03:42:29;;;;;;;16.52;12.18;;;7.50;99.90;;;;;;4914115;29;20062;-58
2022/11/17 03:45:26;;;;;;;17.85;12.60;;;7.50;99.90;;;;;;4905756;29;20083;-58
2022/11/17 03:48:07;;;;;;;15.13;12.45;;;7.50;99.90;;;;;;4914094;29;20040;-58
2022/11/17 03:50:36;;;;;;;14.80;11.68;;;7.50;99.90;;;;;;4915231;29;20048;-58
2022/11/17 03:53:03;;;;;;;14.85;11.88;;;7.50;99.90;;;;;;4916624;29;20056;-59
2022/11/17 03:55:53;;;;;;;13.27;11.30;;;7.50;99.90;;;;;;4914680;29;20076;-57
2022/11/17 03:58:23;;;;;;;17.10;12.82;;;7.50;99.90;;;;;;4915906;29;20086;-59
2022/11/17 04:00:52;;;;;;;15.45;12.38;;;7.40;99.90;;;;;;4914064;29;20082;-59
2022/11/17 04:03:21;;;;;;;15.80;12.27;;;7.40;99.90;;;;;;4914431;29;20091;-59
2022/11/17 04:05:47;;;;;;;20.23;13.13;;;7.40;99.90;;;;;;4914366;29;20485;-58
2022/11/17 04:08:12;;;;;;;14.82;12.43;;;7.40;99.90;;;;;;4915539;29;20079;-58
2022/11/17 04:15:55;;;;;;;15.88;12.15;;;7.40;99.90;;;;;;4918218;29;20062;-58
2022/11/17 04:16:13;;;;;;;15.35;12.20;;;7.30;99.90;;;;;;4892468;29;20048;-59
2022/11/17 04:18:38;;;;;;;15.57;12.88;;;7.30;99.90;;;;;;4905598;29;20075;-59
2022/11/17 04:21:04;;;;;;;17.55;11.90;;;7.30;99.90;;;;;;4917702;29;20047;-57
2022/11/17 04:23:30;;;;;;;13.45;11.32;;;7.30;99.90;;;;;;4908560;29;20052;-59
2022/11/17 04:28:47;;;;;;;16.95;12.32;;;7.30;99.90;;;;;;4916478;29;20047;-58
2022/11/17 04:31:15;;;;;;;15.57;12.48;;;7.20;99.90;;;;;;4914267;29;20085;-58
2022/11/17 04:33:47;;;;;;;15.73;12.57;;;7.20;99.90;;;;;;4913493;29;20071;-59
2022/11/17 04:36:15;;;;;;;15.05;11.63;;;7.20;99.90;;;;;;4906711;29;20055;-59
2022/11/17 04:38:52;;;;;;;15.88;12.13;;;7.20;99.90;;;;;;4917961;29;20102;-60
2022/11/17 04:44:05;;;;;;;15.23;11.82;;;7.10;99.90;;;;;;4917126;29;20076;-59
2022/11/17 04:46:32;;;;;;;16.42;11.88;;;7.10;99.90;;;;;;4914997;29;20040;-59
2022/11/17 04:48:58;;;;;;;16.67;11.63;;;7.10;99.90;;;;;;4917042;29;20538;-58
2022/11/17 04:51:25;;;;;;;14.95;11.75;;;7.10;99.90;;;;;;4918086;29;20495;-60
2022/11/17 04:53:51;;;;;;;13.43;11.10;;;7.10;99.90;;;;;;4917976;29;20703;-60
2022/11/17 04:56:18;;;;;;;14.63;11.27;;;7.10;99.90;;;;;;4904222;29;20048;-59
2022/11/17 04:58:44;;;;;;;17.15;11.18;;;7.10;99.90;;;;;;4914089;29;20047;-58
2022/11/17 05:01:14;;;;;;;15.48;11.23;;;7.10;99.90;;;;;;4914236;29;20668;-59
2022/11/17 05:03:41;;;;;;;15.07;11.73;;;7.10;99.90;;;;;;4913263;29;20115;-59
2022/11/17 05:06:08;;;;;;;14.68;11.48;;;7.00;99.90;;;;;;4911013;29;20126;-59
2022/11/17 05:08:36;;;;;;;15.70;12.07;;;7.00;99.90;;;;;;4914925;29;20079;-58
2022/11/17 05:13:50;;;;;;;16.38;12.00;;;7.00;99.90;;;;;;4913288;29;20112;-59
2022/11/17 05:19:03;;;;;;;14.98;11.55;;;7.00;99.90;;;;;;4913241;29;20088;-58
2022/11/17 05:21:29;;;;;;;13.75;11.20;;;6.90;99.90;;;;;;4912860;29;20506;-58
2022/11/17 05:23:55;;;;;;;12.55;11.02;;;6.90;99.90;;;;;;4915364;29;20044;-59
2022/11/17 05:26:26;;;;;;;13.40;11.02;;;6.90;99.90;;;;;;4914904;29;20056;-58
2022/11/17 05:28:55;;;;;;;13.35;10.40;;;6.90;99.90;;;;;;4916528;29;20126;-59
2022/11/17 05:31:21;;;;;;;12.45;10.75;;;6.90;99.90;;;;;;4896029;29;20448;-59
2022/11/17 05:33:47;;;;;;;15.23;10.77;;;6.90;99.90;;;;;;4916595;29;21029;-58
2022/11/17 05:36:13;;;;;;;12.50;11.07;;;6.90;99.90;;;;;;4917546;29;20044;-58
2022/11/17 05:38:39;;;;;;;13.30;10.68;;;6.90;99.90;;;;;;4906126;29;20051;-58
2022/11/17 05:41:05;;;;;;;12.85;10.70;;;6.90;99.90;;;;;;4915448;29;20048;-59
2022/11/17 05:43:31;;;;;;;11.93;10.57;;;6.90;99.90;;;;;;4915861;29;20044;-59
2022/11/17 05:45:57;;;;;;;13.75;11.32;;;6.90;99.90;;;;;;4918294;29;20047;-59
2022/11/17 05:48:23;;;;;;;12.57;10.70;;;6.80;99.90;;;;;;4910683;29;20044;-60
2022/11/17 05:50:53;;;;;;;13.40;11.43;;;6.90;99.90;;;;;;4908714;29;20636;-57
2022/11/17 05:53:20;;;;;;;13.65;10.75;;;6.80;99.90;;;;;;4909365;29;20051;-60
2022/11/17 05:55:46;;;;;;;12.40;11.00;;;6.80;99.90;;;;;;4912290;29;20056;-59
2022/11/17 05:58:22;;;;;;;15.90;10.52;;;6.80;99.90;;;;;;4911536;29;20054;-57
2022/11/17 06:00:50;;;;;;;12.02;10.20;;;6.80;99.90;;;;;;4908412;29;20056;-59
2022/11/17 06:03:30;;;;;;;13.23;9.90;;;6.80;99.90;;;;;;4911075;29;20052;-59
2022/11/17 06:05:56;;;;;;;11.32;9.57;;;6.80;99.90;;;;;;4909657;29;20052;-59
2022/11/17 06:08:22;;;;;;;11.30;9.68;;;6.70;99.90;;;;;;4910412;29;20048;-58
2022/11/17 06:10:48;;;;;;;11.65;9.85;;;6.80;99.90;;;;;;4908220;29;20047;-59
2022/11/17 06:13:14;;;;;;;11.50;9.52;;;6.70;99.90;;;;;;4911338;29;21266;-59
2022/11/17 06:15:40;;;;;;;9.85;8.85;;;6.70;99.90;;;;;;4910360;29;20598;-58
2022/11/17 06:18:13;;;;;;;11.07;9.43;;;6.70;99.90;;;;;;4908889;29;20475;-58
2022/11/17 06:20:43;;;;;;;13.77;8.50;;;6.70;99.90;;;;;;4916164;29;20499;-59
2022/11/17 06:23:10;;;;;;;9.30;8.32;;;6.70;99.90;;;;;;4916361;29;20294;-59
2022/11/17 06:25:37;;;;;;;11.02;8.93;;;6.70;99.90;;;;;;4910864;29;20968;-59
2022/11/17 06:28:07;;;;;;;10.07;8.27;;;6.70;99.90;;;;;;4915062;29;20050;-59
2022/11/17 06:30:35;;;;;;;9.90;8.40;;;6.70;99.90;;;;;;4910923;29;20075;-58
2022/11/17 06:33:01;;;;;;;10.10;8.13;;;6.60;99.90;;;;;;4911388;29;20057;-57
2022/11/17 06:35:32;;;;;;;10.20;8.20;;;6.60;99.90;;;;;;4911814;29;20051;-59
2022/11/17 06:38:01;;;;;;;11.02;8.50;;;6.70;99.90;;;;;;4898238;29;20051;-58
2022/11/17 06:40:27;;;;;;;9.43;7.88;;;6.60;99.90;;;;;;4914807;29;20086;-58
2022/11/17 06:43:02;;;;;;;10.80;8.13;;;6.70;99.90;;;;;;4915288;29;20052;-58
2022/11/17 06:45:37;;;;;;;8.80;7.55;;;6.70;99.90;;;;;;4897640;29;20554;-58
2022/11/17 06:48:06;;;;;;;8.93;7.55;;;6.60;99.90;;;;;;4915497;29;20059;-57
2022/11/17 06:50:32;;;;;;;9.80;7.53;;;6.60;99.90;;;;;;4912334;29;20514;-57
2022/11/17 06:53:00;;;;;;;9.48;7.18;;;6.70;99.90;;;;;;4913410;29;20076;-58
2022/11/17 06:55:27;;;;;;;9.00;7.45;;;6.60;99.90;;;;;;4914937;29;20059;-58
2022/11/17 06:58:05;;;;;;;9.07;7.35;;;6.70;99.90;;;;;;4914650;29;20066;-58
2022/11/17 07:00:32;;;;;;;8.13;7.18;;;6.60;99.90;;;;;;4914191;29;20051;-57
2022/11/17 07:03:03;;;;;;;7.78;6.80;;;6.60;99.90;;;;;;4908846;29;20083;-58
2022/11/17 07:05:32;;;;;;;9.38;7.00;;;6.60;99.90;;;;;;4916368;29;20043;-57
2022/11/17 07:08:01;;;;;;;8.48;6.55;;;6.60;99.90;;;;;;4912426;29;20048;-58
2022/11/17 07:10:28;;;;;;;8.65;7.13;;;6.70;99.90;;;;;;4909348;29;20079;-58
2022/11/17 07:12:54;;;;;;;9.65;7.40;;;6.70;99.90;;;;;;4915011;29;20055;-52
2022/11/17 07:15:20;;;;;;;10.35;6.55;;;6.60;99.90;;;;;;4913650;29;20118;-50
2022/11/17 07:17:46;;;;;;;8.15;6.95;;;6.60;99.90;;;;;;4901836;29;20111;-49
2022/11/17 07:20:13;;;;;;;8.95;7.50;;;6.60;99.90;;;;;;4918570;29;20040;-51
2022/11/17 07:22:40;;;;;;;8.60;7.28;;;6.60;99.90;;;;;;4914896;29;20083;-49
2022/11/17 07:25:06;;;;;;;7.45;6.25;;;6.60;99.90;;;;;;4915680;29;20051;-48
2022/11/17 07:27:32;;;;;;;12.60;7.55;;;6.60;99.90;;;;;;4915928;29;20087;-51
2022/11/17 07:29:58;;;;;;;7.72;6.78;;;6.60;99.90;;;;;;4915826;29;20098;-52
2022/11/17 07:32:24;;;;;;;8.73;7.20;;;6.60;99.90;;;;;;4916975;29;20062;-52
2022/11/17 07:34:50;;;;;;;7.65;6.60;;;6.60;99.90;;;;;;4915349;29;20062;-50
2022/11/17 07:37:16;;;;;;;7.82;6.97;;;6.60;99.90;;;;;;4916874;29;20110;-49
2022/11/17 07:39:42;;;;;;;8.65;7.07;;;6.60;99.90;;;;;;4919435;29;20074;-50
2022/11/17 07:42:07;;;;;;;8.25;6.97;;;6.60;99.90;;;;;;4914580;29;20048;-50
2022/11/17 07:44:33;;;;;;;7.70;6.72;;;6.60;99.90;;;;;;4915171;29;20043;-50
2022/11/17 07:47:00;;;;;;;8.07;7.00;;;6.60;99.90;;;;;;4914410;29;20075;-50
2022/11/17 07:49:27;;;;;;;14.25;6.88;;;6.60;99.90;;;;;;4916208;29;20532;-49
2022/11/17 07:51:53;;;;;;;7.90;6.28;;;6.60;99.90;;;;;;4915953;29;20356;-47
2022/11/17 07:54:19;;;;;;;7.97;6.15;;;6.60;99.90;;;;;;4915718;29;20356;-54
2022/11/17 07:56:45;;;;;;;8.25;6.30;;;6.60;99.90;;;;;;4913991;29;20056;-53
2022/11/17 07:59:11;;;;;;;7.82;6.35;;;6.60;99.90;;;;;;4914408;29;20047;-52
2022/11/17 08:01:37;;;;;;;6.97;5.90;;;6.60;99.90;;;;;;4915715;29;20119;-51
2022/11/17 08:04:03;;;;;;;8.52;6.47;;;6.60;99.90;;;;;;4914459;29;20517;-52
2022/11/17 08:06:29;;;;;;;7.20;5.90;;;6.60;99.90;;;;;;4915243;29;20499;-51
2022/11/17 08:08:55;;;;;;;7.10;6.00;;;6.60;99.90;;;;;;4900095;29;20158;-51
2022/11/17 08:11:21;;;;;;;7.35;5.85;;;6.60;99.90;;;;;;4911532;29;20155;-51
2022/11/17 08:13:48;;;;;;;6.72;5.75;;;6.60;99.90;;;;;;4911098;29;20462;-49
2022/11/17 08:16:14;;;;;;;8.80;6.20;;;6.60;99.90;;;;;;4911936;29;20083;-48
2022/11/17 08:18:40;;;;;;;8.50;6.00;;;6.60;99.90;;;;;;4912719;29;20095;-53
2022/11/17 08:21:08;;;;;;;7.15;5.25;;;6.60;99.90;;;;;;4899083;29;20138;-52
2022/11/17 08:23:35;;;;;;;7.03;5.18;;;6.60;99.90;;;;;;4910429;29;20090;-49
2022/11/17 08:26:02;;;;;;;7.88;5.10;;;6.60;99.90;;;;;;4910963;29;20056;-51
2022/11/17 08:28:28;;;;;;;6.88;5.28;;;6.60;99.90;;;;;;4911947;29;20044;-52
2022/11/17 08:30:54;;;;;;;7.30;5.53;;;6.60;99.90;;;;;;4913309;29;20064;-50
2022/11/17 08:33:20;;;;;;;6.22;5.43;;;6.60;99.90;;;;;;4898153;29;20040;-50
2022/11/17 08:35:46;;;;;;;6.25;5.35;;;6.60;99.90;;;;;;4901315;29;20055;-51
2022/11/17 08:38:14;;;;;;;6.72;5.20;;;6.60;99.90;;;;;;4914306;29;20047;-50
2022/11/17 08:40:41;;;;;;;6.38;5.47;;;6.60;99.90;;;;;;4913754;29;20051;-48
2022/11/17 08:43:07;;;;;;;6.72;5.55;;;6.60;99.90;;;;;;4914512;29;20126;-51
2022/11/17 08:45:32;;;;;;;7.72;5.93;;;6.60;99.90;;;;;;4916929;29;20055;-52
2022/11/17 08:47:58;;;;;;;6.82;5.85;;;6.60;99.90;;;;;;4913279;29;20460;-52
2022/11/17 08:50:24;;;;;;;7.20;5.72;;;6.60;99.90;;;;;;4916496;29;20043;-50
2022/11/17 08:52:51;;;;;;;6.60;5.32;;;6.60;99.90;;;;;;4914012;29;20052;-50
2022/11/17 08:55:17;;;;;;;9.60;6.53;;;6.60;99.90;;;;;;4912733;29;20098;-50
2022/11/17 08:57:43;;;;;;;7.65;5.88;;;6.70;99.90;;;;;;4912422;29;20059;-54
2022/11/17 09:00:10;;;;;;;7.13;5.93;;;6.60;99.90;;;;;;4918047;29;20044;-51
2022/11/17 09:02:39;;;;;;;7.47;5.88;;;6.60;99.90;;;;;;4916617;29;20051;-51
2022/11/17 09:05:05;;;;;;;7.13;5.97;;;6.60;99.90;;;;;;4917768;29;20600;-51
2022/11/17 09:07:34;;;;;;;9.80;5.88;;;6.60;99.90;;;;;;4916818;29;20048;-49
2022/11/17 09:10:01;;;;;;;8.65;6.63;;;6.60;99.90;;;;;;4904204;29;20051;-48
2022/11/17 09:12:26;;;;;;;9.88;6.65;;;6.70;99.90;;;;;;4917517;29;20470;-50
2022/11/17 09:14:52;;;;;;;7.20;6.45;;;6.60;99.90;;;;;;4916713;29;20052;-51
2022/11/17 09:17:18;;;;;;;8.48;6.60;;;6.60;99.90;;;;;;4916239;29;20048;-51
2022/11/17 09:19:43;;;;;;;9.27;7.07;;;6.70;99.90;;;;;;4917450;29;20522;-50
2022/11/17 09:22:09;;;;;;;10.35;6.43;;;6.70;99.90;;;;;;4902113;29;20052;-52
2022/11/17 09:24:35;;;;;;;8.48;6.93;;;6.60;99.90;;;;;;4915080;29;20044;-51
2022/11/17 09:27:02;;;;;;;7.85;6.28;;;6.70;99.90;;;;;;4916188;29;20059;-50
2022/11/17 09:29:29;;;;;;;8.27;6.07;;;6.70;99.90;;;;;;4915441;29;20424;-48
2022/11/17 09:31:55;;;;;;;7.68;6.30;;;6.70;99.90;;;;;;4916322;29;20056;-51
2022/11/17 09:34:21;;;;;;;8.57;6.28;;;6.70;99.90;;;;;;4916947;29;20051;-52
2022/11/17 09:36:47;;;;;;;6.35;5.75;;;6.70;99.90;;;;;;4913107;29;20135;-50
2022/11/17 09:39:16;;;;;;;7.18;6.05;;;6.70;99.90;;;;;;4914202;29;20059;-49
2022/11/17 09:41:45;;;;;;;7.47;6.35;;;6.70;99.90;;;;;;4913692;29;20044;-53
2022/11/17 09:44:33;;;;;;;7.95;6.68;;;6.70;99.90;;;;;;4916277;29;20070;-52
2022/11/17 09:47:20;;;;;;;8.13;6.28;;;6.70;99.90;;;;;;4915435;29;20096;-49
2022/11/17 09:50:24;;;;;;;6.63;5.75;;;6.70;99.90;;;;;;4914441;29;20173;-51
2022/11/17 09:53:11;;;;;;;8.27;5.68;;;6.70;99.90;;;;;;4910041;29;20111;-51
2022/11/17 09:55:44;;;;;;;8.50;5.68;;;6.70;99.90;;;;;;4910872;29;20048;-49
2022/11/17 09:58:25;;;;;;;6.80;5.93;;;6.80;99.90;;;;;;4896606;29;20056;-50
2022/11/17 10:00:51;;;;;;;8.20;6.32;;;6.70;99.90;;;;;;4911979;29;20530;-51
2022/11/17 10:03:25;;;;;;;6.50;5.78;;;6.70;99.90;;;;;;4911249;29;20099;-51
2022/11/17 10:05:51;;;;;;;9.60;6.45;;;6.70;99.90;;;;;;4909990;29;20506;-50
2022/11/17 10:08:27;;;;;;;6.78;6.07;;;6.70;99.90;;;;;;4911020;29;20059;-47
2022/11/17 10:10:53;;;;;;;8.02;6.10;;;6.70;99.90;;;;;;4910740;29;20067;-49
2022/11/17 10:13:30;;;;;;;7.00;6.30;;;6.70;99.90;;;;;;4910896;29;20368;-48
2022/11/17 10:16:19;;;;;;;7.78;6.50;;;6.70;99.90;;;;;;4911073;29;20142;-53
2022/11/17 10:18:45;;;;;;;9.52;6.60;;;6.70;99.90;;;;;;4909617;29;20094;-50
2022/11/17 10:21:10;;;;;;;7.10;6.32;;;6.70;99.90;;;;;;4911104;29;20483;-51
2022/11/17 10:23:39;;;;;;;7.07;6.35;;;6.70;99.90;;;;;;4911208;29;20052;-48
2022/11/17 10:26:14;;;;;;;8.15;6.22;;;6.70;99.90;;;;;;4909810;29;20066;-49
2022/11/17 10:28:40;;;;;;;8.05;6.47;;;6.70;99.90;;;;;;4891996;29;20460;-48
2022/11/17 10:31:14;;;;;;;8.50;6.22;;;6.70;99.90;;;;;;4922429;29;20056;-51
2022/11/17 10:33:45;;;;;;;7.68;6.25;;;6.70;99.90;;;;;;4928512;28;20070;-51
2022/11/17 10:36:30;;;;;;;7.88;6.50;;;6.80;99.90;;;;;;4929986;28;20099;-49
2022/11/17 10:38:58;;;;;;;7.78;6.45;;;6.80;99.90;;;;;;4929762;29;20062;-48
2022/11/17 10:41:49;;;;;;;8.38;6.57;;;6.80;99.90;;;;;;4928549;29;20371;-51
2022/11/17 10:44:23;;;;;;;7.93;6.65;;;6.80;99.90;;;;;;4928995;29;20805;-47
2022/11/17 10:46:58;;;;;;;8.80;6.32;;;6.80;99.90;;;;;;4930152;29;20051;-52
2022/11/17 10:49:45;;;;;;;9.50;6.63;;;6.80;99.90;;;;;;4929806;29;20052;-49
2022/11/17 10:52:11;;;;;;;9.48;6.22;;;6.80;99.90;;;;;;4928319;29;20486;-52
2022/11/17 10:54:37;;;;;;;8.60;6.18;;;6.90;99.90;;;;;;4928846;28;20048;-51
2022/11/17 10:57:29;;;;;;;6.75;6.05;;;6.90;99.90;;;;;;4928343;29;20087;-51
2022/11/17 10:59:58;;;;;;;7.18;6.10;;;6.90;99.90;;;;;;4930446;29;20059;-50
2022/11/17 11:02:32;;;;;;;6.85;6.13;;;6.80;99.90;;;;;;4930029;29;20043;-51
2022/11/17 11:05:10;;;;;;;6.70;5.93;;;6.90;99.90;;;;;;4929757;28;20047;-49
2022/11/17 11:07:36;;;;;;;8.27;6.18;;;6.90;99.90;;;;;;4929710;29;20151;-47
2022/11/17 11:10:16;;;;;;;7.68;6.50;;;6.80;99.90;;;;;;4928880;29;20379;-50
2022/11/17 11:12:55;;;;;;;7.50;6.07;;;6.80;99.90;;;;;;4929700;29;20047;-52
2022/11/17 11:15:30;;;;;;;7.82;6.15;;;6.80;99.90;;;;;;4929719;29;20047;-50
2022/11/17 11:17:56;;;;;;;7.53;6.30;;;6.80;99.90;;;;;;4929925;29;20500;-49
2022/11/17 11:20:39;;;;;;;8.30;6.65;;;6.80;99.90;;;;;;4928616;29;20084;-53
2022/11/17 11:23:27;;;;;;;8.18;7.00;;;6.80;99.90;;;;;;4928005;29;20170;-48
2022/11/17 11:26:07;;;;;;;7.30;6.55;;;6.80;99.90;;;;;;4929987;29;20048;-49
2022/11/17 11:29:09;;;;;;;8.98;6.57;;;6.80;99.90;;;;;;4929331;29;20051;-49
2022/11/17 11:32:26;;;;;;;7.95;6.65;;;6.80;99.90;;;;;;4909649;29;20065;-49
2022/11/17 11:35:04;;;;;;;7.38;6.53;;;6.80;99.90;;;;;;4867302;29;20090;-48
2022/11/17 11:37:40;;;;;;;9.30;7.15;;;6.80;99.90;;;;;;4850143;29;20041;-51
2022/11/17 11:40:39;;;;;;;9.05;7.28;;;6.80;99.90;;;;;;4892803;29;20040;-49
2022/11/17 11:43:29;;;;;;;8.35;7.00;;;6.90;99.90;;;;;;4909023;29;20088;-51
2022/11/17 11:46:12;;;;;;;8.80;7.30;;;6.90;99.90;;;;;;4909646;29;20047;-52
2022/11/17 11:48:39;;;;;;;9.85;8.02;;;6.90;99.90;;;;;;4910150;29;20047;-50
2022/11/17 11:51:10;;;;;;;10.32;8.13;;;6.90;99.90;;;;;;4909171;29;20455;-49
2022/11/17 11:54:00;;;;;;;12.02;7.65;;;6.90;99.90;;;;;;4910089;29;20102;-49
2022/11/17 11:56:49;;;;;;;9.20;8.10;;;6.90;99.90;;;;;;4908729;29;20055;-52
2022/11/17 11:59:18;;;;;;;9.32;7.90;;;6.90;99.90;;;;;;4909316;29;20043;-51
2022/11/17 12:01:59;;;;;;;9.88;8.43;;;6.90;99.90;;;;;;4910617;29;20048;-50
2022/11/17 12:04:25;;;;;;;9.20;7.72;;;6.90;99.90;;;;;;4907595;29;20080;-49
2022/11/17 12:06:53;;;;;;;9.80;8.27;;;6.90;99.90;;;;;;4895732;29;20610;-47
2022/11/17 12:09:33;;;;;;;9.30;7.90;;;7.00;99.90;;;;;;4908543;29;20047;-48
2022/11/17 12:12:06;;;;;;;11.50;8.77;;;7.00;99.90;;;;;;4907643;29;20135;-48
2022/11/17 12:14:36;;;;;;;9.35;8.25;;;7.00;99.90;;;;;;4908230;29;20119;-47
2022/11/17 12:17:25;;;;;;;11.20;8.40;;;7.00;99.90;;;;;;4906869;29;20048;-48
2022/11/17 12:20:24;;;;;;;10.73;8.75;;;7.00;99.90;;;;;;4908522;29;20600;-48
2022/11/17 12:23:31;;;;;;;12.38;8.45;;;7.00;99.90;;;;;;4908528;29;20052;-53
2022/11/17 12:25:59;;;;;;;13.43;8.10;;;6.90;99.90;;;;;;4908105;29;20419;-47
2022/11/17 12:28:35;;;;;;;10.07;8.10;;;7.00;99.90;;;;;;4907545;29;20510;-46
2022/11/17 12:31:24;;;;;;;9.68;8.43;;;7.00;99.90;;;;;;4907344;29;20415;-50
2022/11/17 12:33:54;;;;;;;9.43;8.07;;;7.00;99.90;;;;;;4906935;29;20496;-49
2022/11/17 12:36:23;;;;;;;11.23;8.80;;;7.00;99.90;;;;;;4912047;29;20513;-48
2022/11/17 12:38:53;;;;;;;8.98;7.93;;;7.00;99.90;;;;;;4912935;29;20503;-50
2022/11/17 12:41:47;;;;;;;8.90;7.38;;;7.00;99.90;;;;;;4911744;29;20106;-50
2022/11/17 12:44:45;;;;;;;8.20;7.10;;;7.00;99.90;;;;;;4911238;29;20106;-49
2022/11/17 12:47:32;;;;;;;8.07;6.97;;;7.00;99.90;;;;;;4882596;29;20134;-52
2022/11/17 12:50:16;;;;;;;11.13;7.88;;;7.00;99.90;;;;;;4911083;29;20399;-53
2022/11/17 12:52:42;;;;;;;7.95;6.95;;;7.00;99.90;;;;;;4913211;29;20040;-50
2022/11/17 12:55:29;;;;;;;9.02;7.47;;;7.00;99.90;;;;;;4911062;29;20044;-50
2022/11/17 12:58:07;;;;;;;8.38;6.90;;;7.00;99.90;;;;;;4911209;29;20043;-50
2022/11/17 13:00:46;;;;;;;9.63;7.25;;;7.00;99.90;;;;;;4912478;29;20048;-50
2022/11/17 13:03:21;;;;;;;9.00;7.40;;;7.00;99.90;;;;;;4911337;29;20123;-50
2022/11/17 13:06:06;;;;;;;8.60;7.68;;;7.00;99.90;;;;;;4911759;29;20694;-51
2022/11/17 13:08:32;;;;;;;9.65;7.13;;;7.10;99.90;;;;;;4911024;29;20052;-50
2022/11/17 13:11:10;;;;;;;8.95;7.35;;;7.10;99.90;;;;;;4910223;29;20503;-52
2022/11/17 13:13:37;;;;;;;8.27;6.90;;;7.10;99.90;;;;;;4907260;29;20044;-50
2022/11/17 13:16:03;;;;;;;8.65;7.47;;;7.10;99.90;;;;;;4911843;29;20083;-52
2022/11/17 13:18:35;;;;;;;8.90;7.30;;;7.10;99.90;;;;;;4911878;29;20514;-51
2022/11/17 13:21:01;;;;;;;9.73;7.72;;;7.10;99.90;;;;;;4911688;29;20089;-52
2022/11/17 13:23:31;;;;;;;10.65;8.10;;;7.20;99.90;;;;;;4910354;29;20123;-50
2022/11/17 13:26:26;;;;;;;9.30;7.68;;;7.20;99.90;;;;;;4909266;29;20489;-52
2022/11/17 13:29:13;;;;;;;8.60;7.50;;;7.20;99.90;;;;;;4909744;29;20098;-50
2022/11/17 13:31:39;;;;;;;9.38;7.95;;;7.20;99.90;;;;;;4913134;29;20055;-53
2022/11/17 13:34:22;;;;;;;12.52;7.03;;;7.20;99.90;;;;;;4911958;29;20064;-51
2022/11/17 13:36:55;;;;;;;;;;;7.30;99.90;;;;;;4912763;29;20048;-49